createdAt,value
2019-05-12T00:00:20.473Z,15.23
2019-05-12T00:02:49.167Z,16.57
2019-05-12T00:05:18.527Z,15.00
2019-05-12T00:07:48.817Z,19.93
2019-05-12T00:10:17.859Z,17.23
2019-05-12T00:12:48.327Z,19.70
2019-05-12T00:15:19.205Z,15.90
2019-05-12T00:17:48.525Z,22.43
2019-05-12T00:20:18.098Z,17.80
2019-05-12T00:22:49.145Z,15.07
2019-05-12T00:25:19.473Z,17.53
2019-05-12T00:27:48.815Z,13.77
2019-05-12T00:30:32.219Z,12.67
2019-05-12T00:33:02.302Z,11.90
2019-05-12T00:35:30.983Z,12.10
2019-05-12T00:37:59.631Z,12.47
2019-05-12T00:40:28.318Z,13.73
2019-05-12T00:42:57.723Z,15.77
2019-05-12T00:45:29.178Z,9.90
2019-05-12T00:47:58.261Z,14.57
2019-05-12T00:50:29.012Z,14.57
2019-05-12T00:52:58.178Z,13.27
2019-05-12T00:55:28.936Z,15.47
2019-05-12T00:57:58.143Z,9.37
2019-05-12T01:00:29.014Z,9.73
2019-05-12T01:02:58.286Z,11.83
2019-05-12T01:05:29.157Z,9.17
2019-05-12T01:07:58.250Z,10.50
2019-05-12T01:10:28.687Z,15.33
2019-05-12T01:12:58.082Z,13.60
2019-05-12T01:15:28.700Z,10.50
2019-05-12T01:17:58.477Z,10.50
2019-05-12T01:20:28.300Z,9.33
2019-05-12T01:22:57.937Z,7.07
2019-05-12T01:25:28.738Z,7.87
2019-05-12T01:27:58.876Z,7.77
2019-05-12T01:30:28.456Z,10.00
2019-05-12T01:32:58.187Z,10.17
2019-05-12T01:35:28.310Z,9.47
2019-05-12T01:38:01.200Z,11.13
2019-05-12T01:40:28.648Z,9.23
2019-05-12T01:42:58.297Z,10.33
2019-05-12T01:45:28.762Z,14.97
2019-05-12T01:47:58.996Z,11.23
2019-05-12T01:50:28.454Z,9.30
2019-05-12T01:52:58.713Z,8.77
2019-05-12T01:55:28.313Z,10.57
2019-05-12T01:57:57.922Z,9.90
2019-05-12T02:00:28.332Z,9.63
2019-05-12T02:02:58.390Z,9.43
2019-05-12T02:05:28.007Z,9.97
2019-05-12T02:07:58.595Z,9.23
2019-05-12T02:10:28.707Z,14.57
2019-05-12T02:12:59.410Z,14.37
2019-05-12T02:15:28.130Z,10.00
2019-05-12T02:17:58.962Z,7.73
2019-05-12T02:20:28.728Z,13.07
2019-05-12T02:23:00.432Z,10.90
2019-05-12T02:25:29.108Z,10.53
2019-05-12T02:27:58.363Z,9.03
2019-05-12T02:30:30.406Z,12.63
2019-05-12T02:32:59.664Z,9.67
2019-05-12T02:35:28.508Z,11.67
2019-05-12T02:37:57.190Z,7.63
2019-05-12T02:40:25.896Z,11.30
2019-05-12T02:42:55.267Z,8.80
2019-05-12T02:45:25.177Z,16.37
2019-05-12T02:47:54.778Z,9.83
2019-05-12T02:50:37.825Z,14.37
2019-05-12T02:53:06.977Z,8.83
2019-05-12T02:55:36.083Z,12.50
2019-05-12T02:58:06.766Z,10.47
2019-05-12T03:00:36.460Z,12.60
2019-05-12T03:03:08.128Z,13.07
2019-05-12T03:05:39.340Z,10.53
2019-05-12T03:08:07.949Z,7.20
2019-05-12T03:10:36.712Z,11.27
2019-05-12T03:13:06.884Z,16.63
2019-05-12T03:15:36.977Z,7.57
2019-05-12T03:18:06.894Z,12.43
2019-05-12T03:20:36.244Z,8.67
2019-05-12T03:23:06.308Z,8.27
2019-05-12T03:25:36.593Z,8.17
2019-05-12T03:28:08.498Z,10.63
2019-05-12T03:30:39.023Z,13.67
2019-05-12T03:33:09.644Z,11.20
2019-05-12T03:35:43.092Z,9.33
2019-05-12T03:38:07.149Z,10.13
2019-05-12T03:40:38.237Z,9.97
2019-05-12T03:43:06.174Z,8.47
2019-05-12T03:45:35.966Z,9.43
2019-05-12T03:48:06.037Z,8.23
2019-05-12T03:50:36.114Z,13.23
2019-05-12T03:53:09.965Z,9.17
2019-05-12T03:55:41.442Z,9.77
2019-05-12T03:58:06.309Z,8.03
2019-05-12T04:00:36.182Z,13.77
2019-05-12T04:03:05.790Z,10.70
2019-05-12T04:05:35.775Z,15.67
2019-05-12T04:08:06.030Z,14.90
2019-05-12T04:10:36.111Z,10.33
2019-05-12T04:13:05.462Z,18.97
2019-05-12T04:15:35.133Z,9.40
2019-05-12T04:18:05.405Z,9.30
2019-05-12T04:20:35.590Z,13.10
2019-05-12T04:23:06.520Z,13.53
2019-05-12T04:25:47.786Z,13.63
2019-05-12T04:28:05.478Z,14.43
2019-05-12T04:30:35.438Z,15.07
2019-05-12T04:33:05.475Z,13.57
2019-05-12T04:35:35.239Z,16.20
2019-05-12T04:38:04.915Z,12.60
2019-05-12T04:40:36.331Z,15.07
2019-05-12T04:43:06.393Z,20.23
2019-05-12T04:45:35.662Z,16.30
2019-05-12T04:48:06.475Z,16.07
2019-05-12T04:50:36.208Z,11.93
2019-05-12T04:53:07.060Z,16.23
2019-05-12T04:55:37.266Z,15.90
2019-05-12T04:58:06.053Z,14.37
2019-05-12T05:00:35.663Z,13.23
2019-05-12T05:03:05.451Z,14.40
2019-05-12T05:05:35.715Z,15.10
2019-05-12T05:08:05.763Z,14.17
2019-05-12T05:10:35.013Z,13.70
2019-05-12T05:13:05.364Z,12.63
2019-05-12T05:15:35.013Z,12.77
2019-05-12T05:18:06.395Z,10.30
2019-05-12T05:20:34.681Z,13.17
2019-05-12T05:23:05.426Z,14.13
2019-05-12T05:25:35.338Z,18.10
2019-05-12T05:28:04.821Z,14.93
2019-05-12T05:30:34.264Z,12.13
2019-05-12T05:33:04.509Z,13.03
2019-05-12T05:35:39.584Z,14.97
2019-05-12T05:38:05.841Z,13.47
2019-05-12T05:40:35.747Z,14.27
2019-05-12T05:43:12.761Z,16.27
2019-05-12T05:45:35.576Z,16.77
2019-05-12T05:48:09.792Z,14.93
2019-05-12T05:50:35.154Z,20.27
2019-05-12T05:53:04.292Z,13.50
2019-05-12T05:55:34.391Z,17.73
2019-05-12T05:58:08.586Z,13.20
2019-05-12T06:00:38.971Z,16.40
2019-05-12T06:03:05.550Z,12.03
2019-05-12T06:05:38.170Z,13.20
2019-05-12T06:08:09.618Z,14.80
2019-05-12T06:10:40.464Z,16.30
2019-05-12T06:13:07.465Z,18.83
2019-05-12T06:15:40.681Z,15.60
2019-05-12T06:18:09.484Z,15.17
2019-05-12T06:20:39.301Z,15.73
2019-05-12T06:23:07.923Z,17.77
2019-05-12T06:25:46.251Z,23.80
2019-05-12T06:28:09.345Z,18.57
2019-05-12T06:30:44.498Z,15.90
2019-05-12T06:33:09.933Z,17.90
2019-05-12T06:35:42.331Z,14.53
2019-05-12T06:38:10.350Z,16.37
2019-05-12T06:40:41.276Z,15.30
2019-05-12T06:43:10.465Z,13.03
2019-05-12T06:45:42.619Z,14.73
2019-05-12T06:48:09.187Z,14.87
2019-05-12T06:50:39.403Z,14.40
2019-05-12T06:53:08.159Z,13.70
2019-05-12T06:55:39.035Z,16.67
2019-05-12T06:58:07.006Z,12.40
2019-05-12T07:00:35.644Z,16.33
2019-05-12T07:03:05.225Z,16.97
2019-05-12T07:05:38.276Z,16.30
2019-05-12T07:08:04.986Z,11.67
2019-05-12T07:10:39.395Z,12.97
2019-05-12T07:13:05.741Z,11.23
2019-05-12T07:15:40.167Z,12.33
2019-05-12T07:18:10.195Z,14.60
2019-05-12T07:20:39.425Z,12.97
2019-05-12T07:23:08.239Z,12.23
2019-05-12T07:25:37.094Z,11.57
2019-05-12T07:28:07.936Z,14.77
2019-05-12T07:30:36.108Z,15.47
2019-05-12T07:33:05.077Z,18.87
2019-05-12T07:35:38.016Z,14.27
2019-05-12T07:38:06.629Z,14.73
2019-05-12T07:40:37.953Z,13.53
2019-05-12T07:43:10.055Z,12.07
2019-05-12T07:45:37.563Z,13.43
2019-05-12T07:48:10.147Z,12.37
2019-05-12T07:50:36.747Z,14.83
2019-05-12T07:53:05.380Z,11.20
2019-05-12T07:55:34.394Z,13.40
2019-05-12T07:58:13.441Z,10.30
2019-05-12T08:00:34.440Z,14.10
2019-05-12T08:03:08.166Z,13.10
2019-05-12T08:05:33.893Z,14.53
2019-05-12T08:08:09.119Z,10.57
2019-05-12T08:10:34.201Z,17.60
2019-05-12T08:13:04.417Z,8.53
2019-05-12T08:15:34.016Z,11.97
2019-05-12T08:18:07.465Z,10.70
2019-05-12T08:20:34.308Z,13.73
2019-05-12T08:23:08.609Z,12.80
2019-05-12T08:25:35.791Z,11.20
2019-05-12T08:28:14.715Z,12.00
2019-05-12T08:30:45.796Z,15.67
2019-05-12T08:33:10.023Z,15.33
2019-05-12T08:35:38.696Z,12.20
2019-05-12T08:38:07.507Z,11.70
2019-05-12T08:40:40.000Z,15.97
2019-05-12T08:43:10.162Z,11.90
2019-05-12T08:45:37.741Z,12.50
2019-05-12T08:48:10.447Z,15.87
2019-05-12T08:50:37.053Z,13.37
2019-05-12T08:53:05.748Z,12.77
2019-05-12T08:55:35.938Z,16.53
2019-05-12T08:58:04.955Z,11.43
2019-05-12T09:00:45.446Z,9.13
2019-05-12T09:03:08.842Z,13.27
2019-05-12T09:05:38.365Z,12.13
2019-05-12T09:08:07.762Z,9.00
2019-05-12T09:10:36.447Z,12.57
2019-05-12T09:13:05.438Z,11.20
2019-05-12T09:15:34.796Z,11.30
2019-05-12T09:18:04.683Z,14.20
2019-05-12T09:20:34.174Z,9.33
2019-05-12T09:23:04.694Z,10.27
2019-05-12T09:25:34.137Z,12.20
2019-05-12T09:28:03.807Z,13.50
2019-05-12T09:30:33.577Z,15.60
2019-05-12T09:33:04.103Z,15.87
2019-05-12T09:35:38.899Z,17.13
2019-05-12T09:38:05.970Z,14.20
2019-05-12T09:40:35.661Z,15.33
2019-05-12T09:43:06.265Z,16.57
2019-05-12T09:45:40.720Z,15.90
2019-05-12T09:48:09.166Z,16.13
2019-05-12T09:50:36.198Z,17.73
2019-05-12T09:53:07.065Z,14.37
2019-05-12T09:55:35.103Z,14.40
2019-05-12T09:58:04.094Z,14.93
2019-05-12T10:00:36.038Z,13.73
2019-05-12T10:03:04.806Z,14.13
2019-05-12T10:05:39.245Z,20.80
2019-05-12T10:08:04.704Z,18.17
2019-05-12T10:10:38.255Z,16.33
2019-05-12T10:13:04.717Z,16.13
2019-05-12T10:15:33.803Z,18.00
2019-05-12T10:18:06.353Z,14.30
2019-05-12T10:20:35.355Z,13.60
2019-05-12T10:23:04.285Z,16.83
2019-05-12T10:25:33.936Z,17.77
2019-05-12T10:28:11.067Z,12.10
2019-05-12T10:30:34.198Z,16.07
2019-05-12T10:33:03.746Z,15.83
2019-05-12T10:35:35.038Z,19.27
2019-05-12T10:38:06.208Z,19.87
2019-05-12T10:40:33.988Z,16.97
2019-05-12T10:43:04.479Z,11.97
2019-05-12T10:45:34.434Z,17.97
2019-05-12T10:48:04.590Z,13.97
2019-05-12T10:50:34.022Z,15.43
2019-05-12T10:53:04.827Z,16.90
2019-05-12T10:55:33.825Z,14.63
2019-05-12T10:58:06.533Z,15.60
2019-05-12T11:00:33.812Z,20.93
2019-05-12T11:03:10.189Z,21.73
2019-05-12T11:05:33.962Z,24.47
2019-05-12T11:08:06.481Z,20.67
2019-05-12T11:10:33.616Z,20.53
2019-05-12T11:13:08.704Z,22.93
2019-05-12T11:15:34.299Z,21.40
2019-05-12T11:18:04.394Z,20.83
2019-05-12T11:20:34.322Z,20.30
2019-05-12T11:23:03.698Z,25.10
2019-05-12T11:25:34.124Z,24.47
2019-05-12T11:28:03.619Z,28.93
2019-05-12T11:30:34.578Z,24.13
2019-05-12T11:33:04.294Z,23.80
2019-05-12T11:35:34.122Z,24.60
2019-05-12T11:38:04.606Z,18.23
2019-05-12T11:40:34.672Z,22.07
2019-05-12T11:43:04.088Z,18.03
2019-05-12T11:45:33.810Z,12.37
2019-05-12T11:48:10.240Z,14.93
2019-05-12T11:50:33.430Z,10.73
2019-05-12T11:53:04.187Z,12.93
2019-05-12T11:55:34.701Z,12.30
2019-05-12T11:58:09.142Z,11.47
2019-05-12T12:00:34.623Z,12.20
2019-05-12T12:03:12.297Z,12.63
2019-05-12T12:05:37.925Z,13.40
2019-05-12T12:08:05.161Z,7.97
2019-05-12T12:10:37.606Z,9.23
2019-05-12T12:13:04.137Z,8.03
2019-05-12T12:15:34.414Z,7.90
2019-05-12T12:18:12.429Z,10.23
2019-05-12T12:20:33.922Z,7.97
2019-05-12T12:23:06.436Z,9.07
2019-05-12T12:25:34.210Z,13.47
2019-05-12T12:28:04.274Z,14.37
2019-05-12T12:30:34.031Z,7.57
2019-05-12T12:33:04.066Z,8.77
2019-05-12T12:35:34.490Z,8.77
2019-05-12T12:38:03.906Z,10.73
2019-05-12T12:40:32.785Z,4.50
2019-05-12T12:43:03.807Z,4.13
2019-05-12T12:45:40.090Z,6.27
2019-05-12T12:48:06.722Z,8.27
2019-05-12T12:50:35.276Z,5.33
2019-05-12T12:53:03.960Z,4.83
2019-05-12T12:55:32.559Z,4.70
2019-05-12T12:58:03.307Z,5.90
2019-05-12T13:00:45.484Z,6.60
2019-05-12T13:03:03.686Z,7.70
2019-05-12T13:05:34.484Z,6.03
2019-05-12T13:08:04.244Z,3.93
2019-05-12T13:10:33.703Z,3.43
2019-05-12T13:13:04.175Z,3.67
2019-05-12T13:15:33.994Z,3.63
2019-05-12T13:18:02.727Z,4.17
2019-05-12T13:20:31.455Z,4.57
2019-05-12T13:23:00.127Z,3.47
2019-05-12T13:25:28.683Z,4.00
2019-05-12T13:28:01.449Z,6.03
2019-05-12T13:30:27.661Z,3.77
2019-05-12T13:32:56.217Z,5.53
2019-05-12T13:35:30.709Z,7.87
2019-05-12T13:38:00.563Z,6.20
2019-05-12T13:40:29.817Z,4.87
2019-05-12T13:42:59.533Z,7.40
2019-05-12T13:45:28.146Z,5.43
2019-05-12T13:47:56.694Z,4.67
2019-05-12T13:50:26.527Z,6.77
2019-05-12T13:52:55.201Z,6.60
2019-05-12T13:55:24.057Z,5.10
2019-05-12T13:57:57.633Z,5.83
2019-05-12T14:00:23.034Z,3.57
2019-05-12T14:02:57.205Z,3.70
2019-05-12T14:05:24.054Z,5.27
2019-05-12T14:07:55.442Z,4.40
2019-05-12T14:10:24.549Z,5.60
2019-05-12T14:12:54.394Z,4.17
2019-05-12T14:15:24.919Z,7.17
2019-05-12T14:17:54.169Z,6.97
2019-05-12T14:20:23.939Z,3.13
2019-05-12T14:22:53.770Z,4.10
2019-05-12T14:25:29.880Z,7.50
2019-05-12T14:27:53.618Z,4.67
2019-05-12T14:30:24.369Z,4.20
2019-05-12T14:32:57.151Z,6.90
2019-05-12T14:35:23.010Z,6.17
2019-05-12T14:37:51.481Z,6.73
2019-05-12T14:40:21.259Z,10.53
2019-05-12T14:42:50.254Z,6.73
2019-05-12T14:45:19.391Z,3.70
2019-05-12T14:47:48.995Z,5.20
2019-05-12T14:50:18.665Z,7.13
2019-05-12T14:52:53.521Z,4.53
2019-05-12T14:55:17.546Z,6.70
2019-05-12T14:57:46.127Z,5.67
2019-05-12T15:00:21.286Z,5.10
2019-05-12T15:02:45.271Z,5.53
2019-05-12T15:05:14.351Z,6.57
2019-05-12T15:07:51.309Z,7.17
2019-05-12T15:10:14.467Z,6.87
2019-05-12T15:12:44.233Z,5.00
2019-05-12T15:15:15.512Z,4.93
2019-05-12T15:17:44.434Z,5.47
2019-05-12T15:20:13.888Z,6.83
2019-05-12T15:22:51.302Z,7.77
2019-05-12T15:25:14.485Z,3.47
2019-05-12T15:27:45.990Z,7.67
2019-05-12T15:30:22.922Z,7.10
2019-05-12T15:32:44.367Z,7.27
2019-05-12T15:35:13.819Z,6.03
2019-05-12T15:37:43.587Z,4.33
2019-05-12T15:40:14.617Z,6.37
2019-05-12T15:42:45.258Z,4.87
2019-05-12T15:45:16.666Z,11.73
2019-05-12T15:47:44.593Z,7.00
2019-05-12T15:50:14.841Z,6.87
2019-05-12T15:52:45.580Z,6.97
2019-05-12T15:55:17.379Z,6.27
2019-05-12T15:57:44.294Z,8.17
2019-05-12T16:00:16.795Z,8.67
2019-05-12T16:02:44.286Z,6.70
2019-05-12T16:05:14.449Z,8.43
2019-05-12T16:07:44.160Z,9.07
2019-05-12T16:10:14.802Z,8.57
2019-05-12T16:12:43.921Z,8.17
2019-05-12T16:15:17.203Z,7.33
2019-05-12T16:17:44.079Z,10.53
2019-05-12T16:20:14.451Z,8.70
2019-05-12T16:22:45.112Z,9.00
2019-05-12T16:25:15.258Z,7.73
2019-05-12T16:27:44.721Z,8.23
2019-05-12T16:30:14.277Z,8.07
2019-05-12T16:32:47.487Z,9.57
2019-05-12T16:35:14.391Z,6.33
2019-05-12T16:37:44.168Z,6.30
2019-05-12T16:40:13.858Z,10.00
2019-05-12T16:42:50.393Z,7.83
2019-05-12T16:45:14.184Z,9.73
2019-05-12T16:47:44.777Z,6.70
2019-05-12T16:50:16.062Z,11.17
2019-05-12T16:52:45.710Z,42.00
2019-05-12T16:55:14.464Z,41.40
2019-05-12T16:57:51.267Z,40.00
2019-05-12T17:00:14.232Z,39.23
2019-05-12T17:02:52.037Z,46.20
2019-05-12T17:05:18.470Z,25.00
2019-05-12T17:07:44.291Z,11.87
2019-05-12T17:10:16.460Z,10.70
2019-05-12T17:12:43.841Z,8.30
2019-05-12T17:15:15.004Z,12.43
2019-05-12T17:17:44.808Z,10.80
2019-05-12T17:20:14.569Z,17.27
2019-05-12T17:22:54.715Z,84.43
2019-05-12T17:25:15.246Z,93.50
2019-05-12T17:27:44.815Z,68.93
2019-05-12T17:30:14.126Z,40.73
2019-05-12T17:32:57.581Z,29.03
2019-05-12T17:35:14.553Z,20.53
2019-05-12T17:37:43.624Z,82.20
2019-05-12T17:40:20.129Z,94.80
2019-05-12T17:42:44.177Z,86.63
2019-05-12T17:45:15.885Z,34.37
2019-05-12T17:47:44.539Z,40.20
2019-05-12T17:50:14.419Z,18.37
2019-05-12T17:52:44.958Z,18.20
2019-05-12T17:55:14.804Z,15.73
2019-05-12T17:57:43.956Z,13.63
2019-05-12T18:00:14.535Z,14.37
2019-05-12T18:02:43.914Z,10.30
2019-05-12T18:05:15.616Z,10.73
2019-05-12T18:07:44.861Z,11.43
2019-05-12T18:10:14.084Z,9.70
2019-05-12T18:12:45.282Z,10.17
2019-05-12T18:15:15.075Z,9.53
2019-05-12T18:17:49.445Z,11.33
2019-05-12T18:20:15.022Z,9.97
2019-05-12T18:22:44.889Z,9.97
2019-05-12T18:25:14.820Z,10.10
2019-05-12T18:27:50.536Z,17.47
2019-05-12T18:30:19.058Z,26.97
2019-05-12T18:32:45.883Z,52.57
2019-05-12T18:35:14.583Z,28.73
2019-05-12T18:37:43.214Z,36.40
2019-05-12T18:40:14.461Z,34.53
2019-05-12T18:42:42.390Z,35.73
2019-05-12T18:45:12.447Z,28.53
2019-05-12T18:47:43.746Z,29.20
2019-05-12T18:50:13.954Z,36.73
2019-05-12T18:52:43.700Z,33.83
2019-05-12T18:55:12.522Z,33.33
2019-05-12T18:57:46.356Z,129.90
2019-05-12T19:00:17.875Z,132.33
2019-05-12T19:02:46.578Z,121.17
2019-05-12T19:05:21.976Z,64.50
2019-05-12T19:07:45.572Z,76.70
2019-05-12T19:10:14.365Z,31.67
2019-05-12T19:12:43.974Z,34.80
2019-05-12T19:15:17.145Z,27.77
2019-05-12T19:17:45.615Z,23.37
2019-05-12T19:20:14.486Z,19.47
2019-05-12T19:22:49.647Z,15.67
2019-05-12T19:25:15.305Z,31.20
2019-05-12T19:27:46.010Z,77.43
2019-05-12T19:30:19.211Z,138.77
2019-05-12T19:32:45.208Z,125.23
2019-05-12T19:35:17.933Z,120.67
2019-05-12T19:37:45.316Z,112.20
2019-05-12T19:40:17.401Z,187.20
2019-05-12T19:42:44.732Z,155.33
2019-05-12T19:45:21.012Z,117.00
2019-05-12T19:47:44.418Z,124.03
2019-05-12T19:50:18.135Z,150.40
2019-05-12T19:52:43.770Z,155.60
2019-05-12T19:55:14.048Z,151.93
2019-05-12T19:57:44.373Z,151.77
2019-05-12T20:00:14.087Z,162.87
2019-05-12T20:02:42.769Z,176.93
2019-05-12T20:05:17.593Z,169.20
2019-05-12T20:07:46.225Z,190.47
2019-05-12T20:10:17.462Z,186.30
2019-05-12T20:12:48.765Z,148.40
2019-05-12T20:15:16.462Z,116.00
2019-05-12T20:17:48.537Z,181.43
2019-05-12T20:20:17.967Z,166.77
2019-05-12T20:22:46.735Z,176.83
2019-05-12T20:25:15.428Z,166.40
2019-05-12T20:27:44.766Z,152.40
2019-05-12T20:30:19.580Z,152.20
2019-05-12T20:32:44.401Z,139.47
2019-05-12T20:35:14.567Z,127.27
2019-05-12T20:37:52.379Z,125.53
2019-05-12T20:40:14.044Z,116.97
2019-05-12T20:43:04.745Z,102.20
2019-05-12T20:45:13.926Z,66.27
2019-05-12T20:47:45.108Z,51.63
2019-05-12T20:50:14.651Z,35.23
2019-05-12T20:52:46.403Z,25.77
2019-05-12T20:55:14.567Z,21.90
2019-05-12T20:57:50.185Z,17.97
2019-05-12T21:00:14.313Z,16.23
2019-05-12T21:02:44.256Z,18.07
2019-05-12T21:05:19.933Z,20.73
2019-05-12T21:07:44.748Z,18.27
2019-05-12T21:10:14.645Z,19.77
2019-05-12T21:12:46.235Z,20.87
2019-05-12T21:15:20.123Z,15.07
2019-05-12T21:17:52.069Z,12.23
2019-05-12T21:20:16.920Z,17.47
2019-05-12T21:22:45.664Z,14.47
2019-05-12T21:25:14.447Z,14.20
2019-05-12T21:27:46.992Z,16.90
2019-05-12T21:30:15.213Z,9.83
2019-05-12T21:32:47.388Z,12.03
2019-05-12T21:35:21.852Z,9.93
2019-05-12T21:37:46.079Z,10.50
2019-05-12T21:40:15.147Z,7.20
2019-05-12T21:42:44.634Z,7.30
2019-05-12T21:45:14.613Z,9.00
2019-05-12T21:47:44.458Z,11.10
2019-05-12T21:50:14.219Z,10.70
2019-05-12T21:52:44.684Z,8.17
2019-05-12T21:55:21.323Z,11.90
2019-05-12T21:57:44.068Z,9.53
2019-05-12T22:00:34.702Z,10.60
2019-05-12T22:03:08.075Z,11.50
2019-05-12T22:05:51.667Z,9.47
2019-05-12T22:08:06.574Z,11.97
2019-05-12T22:10:35.425Z,11.50
2019-05-12T22:13:08.976Z,11.57
2019-05-12T22:15:34.594Z,8.57
2019-05-12T22:18:05.014Z,12.93
2019-05-12T22:20:35.388Z,9.00
2019-05-12T22:23:11.886Z,11.10
2019-05-12T22:25:34.810Z,12.20
2019-05-12T22:28:07.827Z,5.87
2019-05-12T22:30:34.896Z,9.87
2019-05-12T22:33:09.121Z,8.07
2019-05-12T22:35:34.315Z,9.87
2019-05-12T22:38:09.229Z,12.47
2019-05-12T22:40:33.570Z,12.67
2019-05-12T22:43:06.613Z,11.27
2019-05-12T22:45:41.599Z,9.97
2019-05-12T22:48:04.166Z,8.43
2019-05-12T22:50:35.137Z,8.40
2019-05-12T22:53:04.389Z,9.47
2019-05-12T22:55:35.973Z,9.90
2019-05-12T22:58:04.081Z,10.23
2019-05-12T23:00:34.228Z,9.57
2019-05-12T23:03:07.194Z,9.27
2019-05-12T23:05:33.422Z,12.83
2019-05-12T23:08:06.135Z,9.10
2019-05-12T23:10:32.398Z,6.40
2019-05-12T23:13:02.075Z,5.97
2019-05-12T23:15:33.407Z,7.90
2019-05-12T23:18:04.055Z,12.70
2019-05-12T23:20:33.400Z,8.33
2019-05-12T23:23:03.949Z,6.87
2019-05-12T23:25:33.644Z,9.20
2019-05-12T23:28:08.407Z,6.43
2019-05-12T23:30:33.011Z,9.87
2019-05-12T23:33:03.912Z,7.23
2019-05-12T23:35:37.350Z,6.03
2019-05-12T23:38:04.461Z,8.40
2019-05-12T23:40:34.527Z,8.67
2019-05-12T23:43:03.989Z,6.67
2019-05-12T23:45:33.888Z,6.00
2019-05-12T23:48:03.796Z,9.23
2019-05-12T23:50:32.795Z,7.70
2019-05-12T23:53:03.538Z,7.20
2019-05-12T23:55:34.676Z,9.23
2019-05-12T23:58:04.283Z,10.67
